Aviation Digital Data Service (ADDS)

Output produced by METARs form (2255 UTC 15 February 2019)
found at http://www.aviationweather.gov/metar/data/
 
Forecast for: TAPA (COOLIDGE/ANTIGUA, AG)
Text: TAF TAPA 151700Z 1518/1618 13012KT 9999 SCT020
Forecast period: 1800 UTC 15 February 2019 to 1800 UTC 16 February 2019
Forecast type: FROM: standard forecast or significant change
Winds: from the SE (130 degrees) at 14 MPH (12 knots; 6.2 m/s)
Visibility: 6 or more miles 10+ km)
Ceiling: at least 12,000 feet AGL
Clouds: scattered clouds at 2000 feet AGL
Weather: no significant weather forecast for this period
Text: PROB40
Forecast period: 1800 UTC 15 February 2019 to 0200 UTC 16 February 2019
Forecast type: TEMPORARY: The following changes expected for less than half the time period
Visibility: missing
Ceiling: unknown
Clouds: missing
Weather: SHRA  (rain showers)